Res Valles de Guayama, Puerto Rico
Current Conditions -  °F | °C
As of 10:50 AM on Monday 24 Nov 2014 (Local Time) from TJPS Reporting Station
Few Clouds Few Clouds  
Wind Chill: 86°   Ceiling: Unl
Heat Index: 92°   Visibility: 10mi
Dew Point: 72°   Wind: 7mph
Humidity: 62%   Direction: 120°ESE
Pressure: 30"   Gusts: NA
Location:  17.9849°N, 66.1175°W
Report Text: TJPS 241450Z 12006KT 10SM FEW030 30/22 A3000
Loading
Personal Weather Stations






























Interactive Weather Map New forecast layout! Learn more

10-Day Weather Forecast

Advertisements
Track Severe Weather on mobile